sensor_id;sensor_type;location;lat;lon;timestamp;P1;durP1;ratioP1;P2;durP2;ratioP2
64085;SDS011;50333;47.436;21.390;2022-09-28T00:01:18;2.58;;;2.00;;
64085;SDS011;50333;47.436;21.390;2022-09-28T00:03:48;3.90;;;1.90;;
64085;SDS011;50333;47.436;21.390;2022-09-28T00:06:19;2.15;;;1.90;;
64085;SDS011;50333;47.436;21.390;2022-09-28T00:08:48;2.97;;;1.70;;
64085;SDS011;50333;47.436;21.390;2022-09-28T00:11:16;2.85;;;1.85;;
64085;SDS011;50333;47.436;21.390;2022-09-28T00:13:50;3.20;;;1.80;;
64085;SDS011;50333;47.436;21.390;2022-09-28T00:16:20;3.55;;;1.80;;
64085;SDS011;50333;47.436;21.390;2022-09-28T00:18:50;2.55;;;1.80;;
64085;SDS011;50333;47.436;21.390;2022-09-28T00:21:26;4.15;;;1.87;;
64085;SDS011;50333;47.436;21.390;2022-09-28T00:23:56;4.00;;;2.17;;
64085;SDS011;50333;47.436;21.390;2022-09-28T00:26:54;4.53;;;1.90;;
64085;SDS011;50333;47.436;21.390;2022-09-28T00:29:24;1.87;;;1.70;;
64085;SDS011;50333;47.436;21.390;2022-09-28T00:31:55;1.75;;;1.50;;
64085;SDS011;50333;47.436;21.390;2022-09-28T00:34:30;1.90;;;1.62;;
64085;SDS011;50333;47.436;21.390;2022-09-28T00:37:02;4.40;;;2.00;;
64085;SDS011;50333;47.436;21.390;2022-09-28T00:39:31;1.43;;;1.30;;
64085;SDS011;50333;47.436;21.390;2022-09-28T00:42:00;1.73;;;1.20;;
64085;SDS011;50333;47.436;21.390;2022-09-28T00:44:36;1.85;;;1.08;;
64085;SDS011;50333;47.436;21.390;2022-09-28T00:52:11;1.40;;;1.30;;
64085;SDS011;50333;47.436;21.390;2022-09-28T00:54:44;1.52;;;1.35;;
64085;SDS011;50333;47.436;21.390;2022-09-28T00:57:14;4.32;;;1.42;;
64085;SDS011;50333;47.436;21.390;2022-09-28T00:59:42;2.47;;;1.60;;
64085;SDS011;50333;47.436;21.390;2022-09-28T01:02:10;1.33;;;1.20;;
64085;SDS011;50333;47.436;21.390;2022-09-28T01:04:38;1.87;;;1.30;;
64085;SDS011;50333;47.436;21.390;2022-09-28T01:07:07;1.52;;;1.42;;
64085;SDS011;50333;47.436;21.390;2022-09-28T01:09:36;2.58;;;1.40;;
64085;SDS011;50333;47.436;21.390;2022-09-28T01:14:34;2.20;;;1.95;;
64085;SDS011;50333;47.436;21.390;2022-09-28T01:30:19;2.90;;;2.05;;
64085;SDS011;50333;47.436;21.390;2022-09-28T01:35:40;5.22;;;2.10;;
64085;SDS011;50333;47.436;21.390;2022-09-28T01:38:25;3.20;;;2.03;;
64085;SDS011;50333;47.436;21.390;2022-09-28T01:40:59;2.45;;;2.22;;
64085;SDS011;50333;47.436;21.390;2022-09-28T01:43:29;2.65;;;2.10;;
64085;SDS011;50333;47.436;21.390;2022-09-28T01:48:56;2.60;;;2.37;;
64085;SDS011;50333;47.436;21.390;2022-09-28T01:51:29;2.45;;;2.20;;
64085;SDS011;50333;47.436;21.390;2022-09-28T01:54:13;3.33;;;2.40;;
64085;SDS011;50333;47.436;21.390;2022-09-28T01:56:50;3.45;;;2.62;;
64085;SDS011;50333;47.436;21.390;2022-09-28T01:59:28;3.85;;;2.90;;
64085;SDS011;50333;47.436;21.390;2022-09-28T02:02:03;3.30;;;2.70;;
64085;SDS011;50333;47.436;21.390;2022-09-28T02:08:00;5.00;;;3.22;;
64085;SDS011;50333;47.436;21.390;2022-09-28T02:10:45;3.15;;;2.83;;
64085;SDS011;50333;47.436;21.390;2022-09-28T02:13:27;3.40;;;3.00;;
64085;SDS011;50333;47.436;21.390;2022-09-28T02:18:40;3.75;;;3.03;;
64085;SDS011;50333;47.436;21.390;2022-09-28T02:21:31;6.45;;;3.12;;
64085;SDS011;50333;47.436;21.390;2022-09-28T02:24:13;4.43;;;2.97;;
64085;SDS011;50333;47.436;21.390;2022-09-28T02:26:48;3.62;;;2.95;;
64085;SDS011;50333;47.436;21.390;2022-09-28T02:29:18;2.83;;;2.58;;
64085;SDS011;50333;47.436;21.390;2022-09-28T02:31:46;3.55;;;3.10;;
64085;SDS011;50333;47.436;21.390;2022-09-28T02:34:13;3.62;;;2.80;;
64085;SDS011;50333;47.436;21.390;2022-09-28T02:36:41;4.75;;;3.10;;
64085;SDS011;50333;47.436;21.390;2022-09-28T02:39:14;3.42;;;3.12;;
64085;SDS011;50333;47.436;21.390;2022-09-28T03:08:02;5.87;;;2.70;;
64085;SDS011;50333;47.436;21.390;2022-09-28T03:10:58;3.40;;;2.80;;
64085;SDS011;50333;47.436;21.390;2022-09-28T03:13:46;2.72;;;2.53;;
64085;SDS011;50333;47.436;21.390;2022-09-28T03:16:15;2.90;;;2.60;;
64085;SDS011;50333;47.436;21.390;2022-09-28T03:18:59;3.85;;;2.40;;
64085;SDS011;50333;47.436;21.390;2022-09-28T03:21:26;2.87;;;2.50;;
64085;SDS011;50333;47.436;21.390;2022-09-28T03:23:54;3.08;;;2.35;;
64085;SDS011;50333;47.436;21.390;2022-09-28T03:26:22;4.37;;;2.25;;
64085;SDS011;50333;47.436;21.390;2022-09-28T03:28:50;3.67;;;2.35;;
64085;SDS011;50333;47.436;21.390;2022-09-28T03:31:18;3.70;;;2.28;;
64085;SDS011;50333;47.436;21.390;2022-09-28T03:33:46;2.80;;;2.50;;
64085;SDS011;50333;47.436;21.390;2022-09-28T03:36:14;3.25;;;2.30;;
64085;SDS011;50333;47.436;21.390;2022-09-28T03:38:41;4.45;;;2.40;;
64085;SDS011;50333;47.436;21.390;2022-09-28T03:41:09;2.92;;;2.37;;
64085;SDS011;50333;47.436;21.390;2022-09-28T03:43:37;2.28;;;2.08;;
64085;SDS011;50333;47.436;21.390;2022-09-28T03:46:05;2.50;;;2.30;;
64085;SDS011;50333;47.436;21.390;2022-09-28T03:48:34;3.17;;;2.33;;
64085;SDS011;50333;47.436;21.390;2022-09-28T03:51:03;2.67;;;1.90;;
64085;SDS011;50333;47.436;21.390;2022-09-28T03:53:38;4.47;;;2.45;;
64085;SDS011;50333;47.436;21.390;2022-09-28T03:56:14;2.37;;;2.17;;
64085;SDS011;50333;47.436;21.390;2022-09-28T03:58:43;1.95;;;1.75;;
64085;SDS011;50333;47.436;21.390;2022-09-28T04:01:12;2.05;;;1.85;;
64085;SDS011;50333;47.436;21.390;2022-09-28T04:03:44;2.75;;;1.90;;
64085;SDS011;50333;47.436;21.390;2022-09-28T04:06:13;1.75;;;1.62;;
64085;SDS011;50333;47.436;21.390;2022-09-28T04:08:41;3.30;;;1.92;;
64085;SDS011;50333;47.436;21.390;2022-09-28T04:11:10;3.65;;;1.90;;
64085;SDS011;50333;47.436;21.390;2022-09-28T04:13:37;2.30;;;2.10;;
64085;SDS011;50333;47.436;21.390;2022-09-28T04:16:05;2.10;;;1.90;;
64085;SDS011;50333;47.436;21.390;2022-09-28T04:18:34;3.67;;;2.00;;
64085;SDS011;50333;47.436;21.390;2022-09-28T04:21:05;2.12;;;1.67;;
64085;SDS011;50333;47.436;21.390;2022-09-28T04:23:36;2.67;;;2.15;;
64085;SDS011;50333;47.436;21.390;2022-09-28T04:26:06;2.03;;;1.70;;
64085;SDS011;50333;47.436;21.390;2022-09-28T04:28:39;2.10;;;1.90;;
64085;SDS011;50333;47.436;21.390;2022-09-28T04:31:36;4.53;;;1.70;;
64085;SDS011;50333;47.436;21.390;2022-09-28T04:34:08;3.92;;;1.92;;
64085;SDS011;50333;47.436;21.390;2022-09-28T04:36:36;4.43;;;1.65;;
64085;SDS011;50333;47.436;21.390;2022-09-28T04:39:04;6.70;;;1.80;;
64085;SDS011;50333;47.436;21.390;2022-09-28T04:41:32;3.08;;;1.92;;
64085;SDS011;50333;47.436;21.390;2022-09-28T04:44:00;1.70;;;1.60;;
64085;SDS011;50333;47.436;21.390;2022-09-28T04:46:28;1.85;;;1.67;;
64085;SDS011;50333;47.436;21.390;2022-09-28T04:48:57;4.20;;;1.90;;
64085;SDS011;50333;47.436;21.390;2022-09-28T04:51:25;4.60;;;2.25;;
64085;SDS011;50333;47.436;21.390;2022-09-28T04:53:54;3.92;;;1.73;;
64085;SDS011;50333;47.436;21.390;2022-09-28T04:56:21;7.53;;;1.90;;
64085;SDS011;50333;47.436;21.390;2022-09-28T04:58:49;3.35;;;1.90;;
64085;SDS011;50333;47.436;21.390;2022-09-28T05:01:19;3.90;;;1.70;;
64085;SDS011;50333;47.436;21.390;2022-09-28T05:03:52;2.90;;;1.90;;
64085;SDS011;50333;47.436;21.390;2022-09-28T05:06:20;1.62;;;1.52;;
64085;SDS011;50333;47.436;21.390;2022-09-28T05:08:50;5.28;;;1.70;;
64085;SDS011;50333;47.436;21.390;2022-09-28T05:11:18;2.10;;;1.60;;
64085;SDS011;50333;47.436;21.390;2022-09-28T05:13:47;3.35;;;2.10;;
64085;SDS011;50333;47.436;21.390;2022-09-28T05:16:16;3.35;;;2.40;;
64085;SDS011;50333;47.436;21.390;2022-09-28T05:18:45;3.53;;;1.50;;
64085;SDS011;50333;47.436;21.390;2022-09-28T05:21:13;1.70;;;1.60;;
64085;SDS011;50333;47.436;21.390;2022-09-28T05:23:45;3.30;;;1.70;;
64085;SDS011;50333;47.436;21.390;2022-09-28T05:26:15;3.50;;;1.50;;
64085;SDS011;50333;47.436;21.390;2022-09-28T05:28:43;2.50;;;1.40;;
64085;SDS011;50333;47.436;21.390;2022-09-28T05:31:12;4.95;;;3.35;;
64085;SDS011;50333;47.436;21.390;2022-09-28T05:33:41;2.65;;;1.60;;
64085;SDS011;50333;47.436;21.390;2022-09-28T05:36:10;2.90;;;1.90;;
64085;SDS011;50333;47.436;21.390;2022-09-28T05:38:38;1.98;;;1.40;;
64085;SDS011;50333;47.436;21.390;2022-09-28T05:41:05;3.40;;;1.50;;
64085;SDS011;50333;47.436;21.390;2022-09-28T05:43:33;2.90;;;1.73;;
64085;SDS011;50333;47.436;21.390;2022-09-28T05:46:03;2.03;;;1.50;;
64085;SDS011;50333;47.436;21.390;2022-09-28T05:48:33;4.00;;;1.40;;
64085;SDS011;50333;47.436;21.390;2022-09-28T05:51:01;5.43;;;1.50;;
64085;SDS011;50333;47.436;21.390;2022-09-28T05:53:29;3.78;;;1.20;;
64085;SDS011;50333;47.436;21.390;2022-09-28T05:55:57;1.90;;;1.30;;
64085;SDS011;50333;47.436;21.390;2022-09-28T05:58:26;2.05;;;1.30;;
64085;SDS011;50333;47.436;21.390;2022-09-28T06:00:55;4.12;;;1.40;;
64085;SDS011;50333;47.436;21.390;2022-09-28T06:03:23;4.72;;;1.37;;
64085;SDS011;50333;47.436;21.390;2022-09-28T06:05:51;1.45;;;1.35;;
64085;SDS011;50333;47.436;21.390;2022-09-28T06:08:19;4.20;;;1.42;;
64085;SDS011;50333;47.436;21.390;2022-09-28T06:10:48;6.87;;;1.40;;
64085;SDS011;50333;47.436;21.390;2022-09-28T06:13:15;3.65;;;1.30;;
64085;SDS011;50333;47.436;21.390;2022-09-28T06:15:43;1.52;;;1.30;;
64085;SDS011;50333;47.436;21.390;2022-09-28T06:18:13;1.60;;;1.50;;
64085;SDS011;50333;47.436;21.390;2022-09-28T06:20:41;5.25;;;3.92;;
64085;SDS011;50333;47.436;21.390;2022-09-28T06:23:10;20.35;;;10.10;;
64085;SDS011;50333;47.436;21.390;2022-09-28T06:25:39;52.57;;;21.57;;
64085;SDS011;50333;47.436;21.390;2022-09-28T06:28:11;56.40;;;22.83;;
64085;SDS011;50333;47.436;21.390;2022-09-28T06:30:41;72.32;;;31.85;;
64085;SDS011;50333;47.436;21.390;2022-09-28T06:33:11;26.77;;;15.70;;
64085;SDS011;50333;47.436;21.390;2022-09-28T06:35:40;2.08;;;1.85;;
64085;SDS011;50333;47.436;21.390;2022-09-28T06:38:09;1.42;;;1.30;;
64085;SDS011;50333;47.436;21.390;2022-09-28T06:40:37;1.50;;;1.12;;
64085;SDS011;50333;47.436;21.390;2022-09-28T06:43:07;1.60;;;1.20;;
64085;SDS011;50333;47.436;21.390;2022-09-28T06:45:43;1.85;;;1.20;;
64085;SDS011;50333;47.436;21.390;2022-09-28T06:48:19;1.48;;;1.35;;
64085;SDS011;50333;47.436;21.390;2022-09-28T06:50:48;1.30;;;1.00;;
64085;SDS011;50333;47.436;21.390;2022-09-28T06:53:16;2.62;;;1.20;;
64085;SDS011;50333;47.436;21.390;2022-09-28T06:55:45;4.35;;;2.05;;
64085;SDS011;50333;47.436;21.390;2022-09-28T06:58:17;4.10;;;1.92;;
64085;SDS011;50333;47.436;21.390;2022-09-28T07:00:48;5.68;;;2.90;;
64085;SDS011;50333;47.436;21.390;2022-09-28T07:03:18;6.85;;;3.47;;
64085;SDS011;50333;47.436;21.390;2022-09-28T07:05:49;6.80;;;1.40;;
64085;SDS011;50333;47.436;21.390;2022-09-28T07:08:31;7.03;;;2.60;;
64085;SDS011;50333;47.436;21.390;2022-09-28T07:10:59;3.17;;;1.00;;
64085;SDS011;50333;47.436;21.390;2022-09-28T07:13:32;2.25;;;1.48;;
64085;SDS011;50333;47.436;21.390;2022-09-28T07:16:17;4.18;;;1.60;;
64085;SDS011;50333;47.436;21.390;2022-09-28T07:18:52;8.88;;;1.30;;
64085;SDS011;50333;47.436;21.390;2022-09-28T07:21:20;5.93;;;2.03;;
64085;SDS011;50333;47.436;21.390;2022-09-28T07:23:57;12.15;;;2.58;;
64085;SDS011;50333;47.436;21.390;2022-09-28T07:26:29;1.83;;;1.25;;
64085;SDS011;50333;47.436;21.390;2022-09-28T07:28:59;5.72;;;1.23;;
64085;SDS011;50333;47.436;21.390;2022-09-28T07:31:27;6.95;;;1.15;;
64085;SDS011;50333;47.436;21.390;2022-09-28T07:33:56;0.90;;;0.90;;
64085;SDS011;50333;47.436;21.390;2022-09-28T07:36:25;1.05;;;0.90;;
64085;SDS011;50333;47.436;21.390;2022-09-28T07:38:53;4.70;;;1.90;;
64085;SDS011;50333;47.436;21.390;2022-09-28T07:41:21;1.55;;;1.00;;
64085;SDS011;50333;47.436;21.390;2022-09-28T07:43:59;1.00;;;0.90;;
64085;SDS011;50333;47.436;21.390;2022-09-28T07:46:32;1.75;;;0.90;;
64085;SDS011;50333;47.436;21.390;2022-09-28T07:49:01;1.08;;;0.90;;
64085;SDS011;50333;47.436;21.390;2022-09-28T07:51:38;0.90;;;0.90;;
64085;SDS011;50333;47.436;21.390;2022-09-28T07:54:07;2.58;;;1.00;;
64085;SDS011;50333;47.436;21.390;2022-09-28T07:56:35;2.42;;;0.80;;
64085;SDS011;50333;47.436;21.390;2022-09-28T07:59:03;2.30;;;1.20;;
64085;SDS011;50333;47.436;21.390;2022-09-28T08:01:31;2.58;;;1.00;;
64085;SDS011;50333;47.436;21.390;2022-09-28T08:03:59;1.85;;;1.05;;
64085;SDS011;50333;47.436;21.390;2022-09-28T08:06:27;6.35;;;1.10;;
64085;SDS011;50333;47.436;21.390;2022-09-28T08:08:56;0.90;;;0.85;;
64085;SDS011;50333;47.436;21.390;2022-09-28T08:11:28;4.97;;;2.20;;
64085;SDS011;50333;47.436;21.390;2022-09-28T08:13:56;1.73;;;1.27;;
64085;SDS011;50333;47.436;21.390;2022-09-28T08:16:26;1.12;;;0.90;;
64085;SDS011;50333;47.436;21.390;2022-09-28T08:18:54;1.65;;;0.90;;
64085;SDS011;50333;47.436;21.390;2022-09-28T08:21:22;2.08;;;1.10;;
64085;SDS011;50333;47.436;21.390;2022-09-28T08:24:11;1.55;;;1.10;;
64085;SDS011;50333;47.436;21.390;2022-09-28T08:29:09;3.28;;;0.80;;
64085;SDS011;50333;47.436;21.390;2022-09-28T08:31:37;1.05;;;0.77;;
64085;SDS011;50333;47.436;21.390;2022-09-28T08:34:05;1.90;;;0.80;;
64085;SDS011;50333;47.436;21.390;2022-09-28T08:36:35;0.60;;;0.60;;
64085;SDS011;50333;47.436;21.390;2022-09-28T08:39:04;1.95;;;0.82;;
64085;SDS011;50333;47.436;21.390;2022-09-28T08:44:18;0.80;;;0.80;;
64085;SDS011;50333;47.436;21.390;2022-09-28T08:46:57;0.70;;;0.70;;
64085;SDS011;50333;47.436;21.390;2022-09-28T08:57:26;2.37;;;0.60;;
64085;SDS011;50333;47.436;21.390;2022-09-28T09:00:16;0.50;;;0.50;;
64085;SDS011;50333;47.436;21.390;2022-09-28T09:02:47;0.40;;;0.40;;
64085;SDS011;50333;47.436;21.390;2022-09-28T09:05:17;0.57;;;0.47;;
64085;SDS011;50333;47.436;21.390;2022-09-28T09:16:08;0.62;;;0.47;;
64085;SDS011;50333;47.436;21.390;2022-09-28T09:18:59;0.70;;;0.50;;
64085;SDS011;50333;47.436;21.390;2022-09-28T09:21:51;0.55;;;0.50;;
64085;SDS011;50333;47.436;21.390;2022-09-28T09:25:11;1.40;;;0.60;;
64085;SDS011;50333;47.436;21.390;2022-09-28T09:27:34;0.50;;;0.50;;
64085;SDS011;50333;47.436;21.390;2022-09-28T09:30:30;1.40;;;0.50;;
64085;SDS011;50333;47.436;21.390;2022-09-28T09:39:20;0.50;;;0.50;;
64085;SDS011;50333;47.436;21.390;2022-09-28T09:55:19;0.30;;;0.30;;
64085;SDS011;50333;47.436;21.390;2022-09-28T09:57:59;0.65;;;0.40;;
64085;SDS011;50333;47.436;21.390;2022-09-28T10:03:21;0.40;;;0.40;;
64085;SDS011;50333;47.436;21.390;2022-09-28T10:06:17;1.08;;;0.40;;
64085;SDS011;50333;47.436;21.390;2022-09-28T10:11:34;0.43;;;0.40;;
64085;SDS011;50333;47.436;21.390;2022-09-28T10:14:16;0.70;;;0.40;;
64085;SDS011;50333;47.436;21.390;2022-09-28T10:16:49;1.75;;;0.50;;
64085;SDS011;50333;47.436;21.390;2022-09-28T10:19:24;0.52;;;0.50;;
64085;SDS011;50333;47.436;21.390;2022-09-28T10:22:04;0.85;;;0.52;;
64085;SDS011;50333;47.436;21.390;2022-09-28T10:24:34;0.60;;;0.60;;
64085;SDS011;50333;47.436;21.390;2022-09-28T10:27:07;0.82;;;0.45;;
64085;SDS011;50333;47.436;21.390;2022-09-28T10:29:44;0.40;;;0.30;;
64085;SDS011;50333;47.436;21.390;2022-09-28T10:32:26;0.80;;;0.70;;
64085;SDS011;50333;47.436;21.390;2022-09-28T10:35:26;1.00;;;0.60;;
64085;SDS011;50333;47.436;21.390;2022-09-28T10:38:37;2.67;;;0.60;;
64085;SDS011;50333;47.436;21.390;2022-09-28T10:40:49;1.65;;;0.68;;
64085;SDS011;50333;47.436;21.390;2022-09-28T10:51:19;0.68;;;0.50;;
64085;SDS011;50333;47.436;21.390;2022-09-28T10:54:09;0.73;;;0.50;;
64085;SDS011;50333;47.436;21.390;2022-09-28T10:56:51;1.92;;;0.77;;
64085;SDS011;50333;47.436;21.390;2022-09-28T11:02:31;0.85;;;0.40;;
64085;SDS011;50333;47.436;21.390;2022-09-28T11:05:03;3.35;;;0.60;;
64085;SDS011;50333;47.436;21.390;2022-09-28T11:07:43;3.75;;;0.70;;
64085;SDS011;50333;47.436;21.390;2022-09-28T11:10:19;2.03;;;0.60;;
64085;SDS011;50333;47.436;21.390;2022-09-28T11:12:51;0.80;;;0.40;;
64085;SDS011;50333;47.436;21.390;2022-09-28T11:15:22;1.15;;;0.60;;
64085;SDS011;50333;47.436;21.390;2022-09-28T11:17:54;0.82;;;0.60;;
64085;SDS011;50333;47.436;21.390;2022-09-28T11:22:59;1.95;;;0.50;;
64085;SDS011;50333;47.436;21.390;2022-09-28T11:25:41;0.73;;;0.50;;
64085;SDS011;50333;47.436;21.390;2022-09-28T11:28:16;0.57;;;0.37;;
64085;SDS011;50333;47.436;21.390;2022-09-28T11:30:50;2.12;;;0.20;;
64085;SDS011;50333;47.436;21.390;2022-09-28T11:33:32;0.40;;;0.40;;
64085;SDS011;50333;47.436;21.390;2022-09-28T11:55:30;1.37;;;0.70;;
64085;SDS011;50333;47.436;21.390;2022-09-28T11:58:05;0.60;;;0.40;;
64085;SDS011;50333;47.436;21.390;2022-09-28T12:00:48;0.85;;;0.60;;
64085;SDS011;50333;47.436;21.390;2022-09-28T12:03:27;0.50;;;0.50;;
64085;SDS011;50333;47.436;21.390;2022-09-28T12:06:01;0.75;;;0.55;;
64085;SDS011;50333;47.436;21.390;2022-09-28T12:08:35;0.43;;;0.43;;
64085;SDS011;50333;47.436;21.390;2022-09-28T12:11:16;1.37;;;0.55;;
64085;SDS011;50333;47.436;21.390;2022-09-28T12:13:51;2.90;;;0.62;;
64085;SDS011;50333;47.436;21.390;2022-09-28T12:16:22;0.40;;;0.40;;
64085;SDS011;50333;47.436;21.390;2022-09-28T12:19:16;0.98;;;0.57;;
64085;SDS011;50333;47.436;21.390;2022-09-28T12:21:48;0.85;;;0.80;;
64085;SDS011;50333;47.436;21.390;2022-09-28T12:27:22;5.53;;;0.40;;
64085;SDS011;50333;47.436;21.390;2022-09-28T12:30:17;4.57;;;0.40;;
64085;SDS011;50333;47.436;21.390;2022-09-28T12:32:52;0.50;;;0.50;;
64085;SDS011;50333;47.436;21.390;2022-09-28T12:35:38;1.87;;;0.40;;
64085;SDS011;50333;47.436;21.390;2022-09-28T12:38:18;1.60;;;0.55;;
64085;SDS011;50333;47.436;21.390;2022-09-28T12:52:13;0.70;;;0.47;;
64085;SDS011;50333;47.436;21.390;2022-09-28T12:55:18;0.57;;;0.50;;
64085;SDS011;50333;47.436;21.390;2022-09-28T13:00:37;0.62;;;0.47;;
64085;SDS011;50333;47.436;21.390;2022-09-28T13:08:38;9.50;;;0.62;;
64085;SDS011;50333;47.436;21.390;2022-09-28T13:16:47;0.85;;;0.52;;
64085;SDS011;50333;47.436;21.390;2022-09-28T13:25:13;1.67;;;0.55;;
64085;SDS011;50333;47.436;21.390;2022-09-28T13:27:49;1.33;;;0.50;;
64085;SDS011;50333;47.436;21.390;2022-09-28T13:30:21;0.65;;;0.50;;
64085;SDS011;50333;47.436;21.390;2022-09-28T13:32:49;0.60;;;0.60;;
64085;SDS011;50333;47.436;21.390;2022-09-28T13:35:18;1.00;;;0.70;;
64085;SDS011;50333;47.436;21.390;2022-09-28T13:37:46;0.52;;;0.47;;
64085;SDS011;50333;47.436;21.390;2022-09-28T13:40:15;0.40;;;0.40;;
64085;SDS011;50333;47.436;21.390;2022-09-28T14:01:31;0.45;;;0.43;;
64085;SDS011;50333;47.436;21.390;2022-09-28T14:06:42;1.33;;;0.50;;
64085;SDS011;50333;47.436;21.390;2022-09-28T14:09:23;1.20;;;0.70;;
64085;SDS011;50333;47.436;21.390;2022-09-28T14:14:59;2.58;;;0.65;;
64085;SDS011;50333;47.436;21.390;2022-09-28T14:17:40;0.60;;;0.60;;
64085;SDS011;50333;47.436;21.390;2022-09-28T14:20:18;1.45;;;0.60;;
64085;SDS011;50333;47.436;21.390;2022-09-28T14:25:45;3.25;;;1.37;;
64085;SDS011;50333;47.436;21.390;2022-09-28T14:31:25;0.60;;;0.60;;
64085;SDS011;50333;47.436;21.390;2022-09-28T14:33:55;2.95;;;0.90;;
64085;SDS011;50333;47.436;21.390;2022-09-28T14:36:31;2.75;;;0.77;;
64085;SDS011;50333;47.436;21.390;2022-09-28T14:39:27;0.52;;;0.52;;
64085;SDS011;50333;47.436;21.390;2022-09-28T14:42:21;1.15;;;0.90;;
64085;SDS011;50333;47.436;21.390;2022-09-28T14:52:54;0.93;;;0.75;;
64085;SDS011;50333;47.436;21.390;2022-09-28T14:55:26;2.30;;;1.10;;
64085;SDS011;50333;47.436;21.390;2022-09-28T14:57:58;0.62;;;0.62;;
64085;SDS011;50333;47.436;21.390;2022-09-28T15:00:26;0.80;;;0.80;;
64085;SDS011;50333;47.436;21.390;2022-09-28T15:03:01;0.95;;;0.57;;
64085;SDS011;50333;47.436;21.390;2022-09-28T15:05:41;1.77;;;0.80;;
64085;SDS011;50333;47.436;21.390;2022-09-28T15:08:14;1.80;;;1.00;;
64085;SDS011;50333;47.436;21.390;2022-09-28T15:10:47;0.80;;;0.80;;
64085;SDS011;50333;47.436;21.390;2022-09-28T15:13:21;1.70;;;0.80;;
64085;SDS011;50333;47.436;21.390;2022-09-28T15:16:03;3.62;;;0.80;;
64085;SDS011;50333;47.436;21.390;2022-09-28T15:21:19;4.25;;;0.80;;
64085;SDS011;50333;47.436;21.390;2022-09-28T15:23:47;0.98;;;0.60;;
64085;SDS011;50333;47.436;21.390;2022-09-28T15:26:20;1.30;;;0.50;;
64085;SDS011;50333;47.436;21.390;2022-09-28T15:28:54;0.68;;;0.50;;
64085;SDS011;50333;47.436;21.390;2022-09-28T15:31:23;0.60;;;0.60;;
64085;SDS011;50333;47.436;21.390;2022-09-28T15:36:42;0.62;;;0.62;;
64085;SDS011;50333;47.436;21.390;2022-09-28T15:39:14;1.40;;;0.75;;
64085;SDS011;50333;47.436;21.390;2022-09-28T15:41:47;2.95;;;0.70;;
64085;SDS011;50333;47.436;21.390;2022-09-28T15:47:23;2.87;;;0.98;;
64085;SDS011;50333;47.436;21.390;2022-09-28T15:52:34;2.90;;;1.70;;
64085;SDS011;50333;47.436;21.390;2022-09-28T15:57:48;2.42;;;1.08;;
64085;SDS011;50333;47.436;21.390;2022-09-28T16:02:57;1.40;;;0.98;;
64085;SDS011;50333;47.436;21.390;2022-09-28T16:16:25;2.65;;;1.27;;
64085;SDS011;50333;47.436;21.390;2022-09-28T16:18:57;2.12;;;1.40;;
64085;SDS011;50333;47.436;21.390;2022-09-28T16:24:05;3.35;;;1.73;;
64085;SDS011;50333;47.436;21.390;2022-09-28T16:26:35;4.03;;;2.15;;
64085;SDS011;50333;47.436;21.390;2022-09-28T16:29:07;5.87;;;1.50;;
64085;SDS011;50333;47.436;21.390;2022-09-28T16:31:53;2.20;;;1.37;;
64085;SDS011;50333;47.436;21.390;2022-09-28T16:34:25;2.25;;;1.00;;
64085;SDS011;50333;47.436;21.390;2022-09-28T16:36:53;10.63;;;2.00;;
64085;SDS011;50333;47.436;21.390;2022-09-28T16:39:21;6.50;;;2.37;;
64085;SDS011;50333;47.436;21.390;2022-09-28T16:41:50;3.00;;;1.40;;
64085;SDS011;50333;47.436;21.390;2022-09-28T16:44:21;6.85;;;1.67;;
64085;SDS011;50333;47.436;21.390;2022-09-28T16:46:52;9.45;;;2.20;;
64085;SDS011;50333;47.436;21.390;2022-09-28T16:51:52;2.05;;;1.80;;
64085;SDS011;50333;47.436;21.390;2022-09-28T16:54:21;4.70;;;1.55;;
64085;SDS011;50333;47.436;21.390;2022-09-28T16:57:10;2.00;;;1.42;;
64085;SDS011;50333;47.436;21.390;2022-09-28T16:59:40;4.97;;;1.45;;
64085;SDS011;50333;47.436;21.390;2022-09-28T17:02:14;4.25;;;1.67;;
64085;SDS011;50333;47.436;21.390;2022-09-28T17:05:04;6.53;;;1.80;;
64085;SDS011;50333;47.436;21.390;2022-09-28T17:07:33;2.25;;;1.55;;
64085;SDS011;50333;47.436;21.390;2022-09-28T17:10:01;2.28;;;1.60;;
64085;SDS011;50333;47.436;21.390;2022-09-28T17:12:29;4.15;;;1.10;;
64085;SDS011;50333;47.436;21.390;2022-09-28T17:14:57;1.85;;;1.15;;
64085;SDS011;50333;47.436;21.390;2022-09-28T17:17:26;3.67;;;1.20;;
64085;SDS011;50333;47.436;21.390;2022-09-28T17:19:56;1.43;;;1.00;;
64085;SDS011;50333;47.436;21.390;2022-09-28T17:22:23;3.83;;;1.10;;
64085;SDS011;50333;47.436;21.390;2022-09-28T17:24:51;0.80;;;0.80;;
64085;SDS011;50333;47.436;21.390;2022-09-28T17:27:19;0.90;;;0.90;;
64085;SDS011;50333;47.436;21.390;2022-09-28T17:29:47;1.33;;;0.90;;
64085;SDS011;50333;47.436;21.390;2022-09-28T17:32:18;2.80;;;0.85;;
64085;SDS011;50333;47.436;21.390;2022-09-28T17:34:45;2.53;;;0.98;;
64085;SDS011;50333;47.436;21.390;2022-09-28T17:37:32;2.10;;;1.10;;
64085;SDS011;50333;47.436;21.390;2022-09-28T17:40:09;1.10;;;1.00;;
64085;SDS011;50333;47.436;21.390;2022-09-28T17:42:39;1.17;;;0.90;;
64085;SDS011;50333;47.436;21.390;2022-09-28T17:45:07;3.65;;;1.00;;
64085;SDS011;50333;47.436;21.390;2022-09-28T17:47:34;1.30;;;1.00;;
64085;SDS011;50333;47.436;21.390;2022-09-28T17:50:07;2.85;;;1.05;;
64085;SDS011;50333;47.436;21.390;2022-09-28T17:52:49;1.15;;;1.00;;
64085;SDS011;50333;47.436;21.390;2022-09-28T17:55:19;0.98;;;0.85;;
64085;SDS011;50333;47.436;21.390;2022-09-28T17:57:49;2.37;;;0.85;;
64085;SDS011;50333;47.436;21.390;2022-09-28T18:00:17;0.70;;;0.70;;
64085;SDS011;50333;47.436;21.390;2022-09-28T18:02:45;0.95;;;0.90;;
64085;SDS011;50333;47.436;21.390;2022-09-28T18:05:13;0.93;;;0.90;;
64085;SDS011;50333;47.436;21.390;2022-09-28T18:07:41;2.58;;;0.70;;
64085;SDS011;50333;47.436;21.390;2022-09-28T18:10:17;3.47;;;0.90;;
64085;SDS011;50333;47.436;21.390;2022-09-28T18:12:48;1.30;;;1.00;;
64085;SDS011;50333;47.436;21.390;2022-09-28T18:15:17;3.12;;;0.90;;
64085;SDS011;50333;47.436;21.390;2022-09-28T18:17:45;1.87;;;1.20;;
64085;SDS011;50333;47.436;21.390;2022-09-28T18:20:13;1.65;;;0.90;;
64085;SDS011;50333;47.436;21.390;2022-09-28T18:22:41;2.05;;;0.88;;
64085;SDS011;50333;47.436;21.390;2022-09-28T18:25:08;1.70;;;1.05;;
64085;SDS011;50333;47.436;21.390;2022-09-28T18:27:37;5.93;;;1.00;;
64085;SDS011;50333;47.436;21.390;2022-09-28T18:30:05;1.02;;;0.93;;
64085;SDS011;50333;47.436;21.390;2022-09-28T18:32:34;1.85;;;0.80;;
64085;SDS011;50333;47.436;21.390;2022-09-28T18:35:06;1.23;;;1.08;;
64085;SDS011;50333;47.436;21.390;2022-09-28T18:37:35;4.43;;;0.88;;
64085;SDS011;50333;47.436;21.390;2022-09-28T18:40:07;3.53;;;1.05;;
64085;SDS011;50333;47.436;21.390;2022-09-28T18:42:36;2.63;;;0.80;;
64085;SDS011;50333;47.436;21.390;2022-09-28T18:45:07;5.03;;;0.98;;
64085;SDS011;50333;47.436;21.390;2022-09-28T18:47:38;1.12;;;1.00;;
64085;SDS011;50333;47.436;21.390;2022-09-28T18:50:06;1.65;;;0.80;;
64085;SDS011;50333;47.436;21.390;2022-09-28T18:52:35;1.70;;;0.90;;
64085;SDS011;50333;47.436;21.390;2022-09-28T18:55:04;1.65;;;0.90;;
64085;SDS011;50333;47.436;21.390;2022-09-28T18:57:34;1.05;;;0.80;;
64085;SDS011;50333;47.436;21.390;2022-09-28T19:00:04;2.80;;;0.80;;
64085;SDS011;50333;47.436;21.390;2022-09-28T19:02:33;0.80;;;0.80;;
64085;SDS011;50333;47.436;21.390;2022-09-28T19:05:02;2.83;;;0.80;;
64085;SDS011;50333;47.436;21.390;2022-09-28T19:07:32;0.90;;;0.90;;
64085;SDS011;50333;47.436;21.390;2022-09-28T19:09:59;2.55;;;0.90;;